createdAt,value
2019-05-30T00:01:08.077Z,43.26
2019-05-30T00:06:11.790Z,43.25
2019-05-30T00:11:15.289Z,43.33
2019-05-30T00:16:19.074Z,43.42
2019-05-30T00:21:22.779Z,43.51
2019-05-30T00:26:26.405Z,43.16
2019-05-30T00:31:29.955Z,43.46
2019-05-30T00:36:33.613Z,43.50
2019-05-30T00:41:37.167Z,43.61
2019-05-30T00:46:40.802Z,43.84
2019-05-30T00:51:44.451Z,43.64
2019-05-30T00:56:48.230Z,43.62
2019-05-30T01:01:51.944Z,43.64
2019-05-30T01:06:56.847Z,43.59
2019-05-30T01:12:01.132Z,43.31
2019-05-30T01:17:05.332Z,43.31
2019-05-30T01:22:09.082Z,43.44
2019-05-30T01:27:13.124Z,43.54
2019-05-30T01:32:29.554Z,43.49
2019-05-30T01:37:33.236Z,43.41
2019-05-30T01:42:36.850Z,43.62
2019-05-30T01:47:40.394Z,43.70
2019-05-30T01:52:44.159Z,43.50
2019-05-30T01:57:47.983Z,43.60
2019-05-30T02:02:51.646Z,43.73
2019-05-30T02:07:55.364Z,43.78
2019-05-30T02:12:59.596Z,43.75
2019-05-30T02:18:03.606Z,43.66
2019-05-30T02:23:08.101Z,43.63
2019-05-30T02:28:12.810Z,44.00
2019-05-30T02:33:16.628Z,43.70
2019-05-30T02:38:20.607Z,43.69
2019-05-30T02:43:24.687Z,43.46
2019-05-30T02:48:28.231Z,43.46
2019-05-30T02:53:31.924Z,43.55
2019-05-30T02:58:37.797Z,43.64
2019-05-30T03:03:41.414Z,44.01
2019-05-30T03:08:45.045Z,43.87
2019-05-30T03:13:49.021Z,43.59
2019-05-30T03:18:52.891Z,43.63
2019-05-30T03:23:56.712Z,43.79
2019-05-30T03:29:02.539Z,43.81
2019-05-30T03:34:16.415Z,43.81
2019-05-30T03:39:13.130Z,43.88
2019-05-30T03:44:17.482Z,43.71
2019-05-30T03:49:24.122Z,43.95
2019-05-30T03:54:27.913Z,43.94
2019-05-30T03:59:34.556Z,43.90
2019-05-30T04:04:44.086Z,43.55
2019-05-30T04:09:50.786Z,43.78
2019-05-30T04:14:57.466Z,43.72
2019-05-30T04:20:01.026Z,43.55
2019-05-30T04:25:08.593Z,44.13
2019-05-30T04:30:14.281Z,43.61
2019-05-30T04:35:18.873Z,43.92
2019-05-30T04:40:22.590Z,43.87
2019-05-30T04:45:27.818Z,43.93
2019-05-30T04:50:31.322Z,43.85
2019-05-30T04:55:35.036Z,44.18
2019-05-30T05:00:38.850Z,44.15
2019-05-30T05:05:42.473Z,44.23
2019-05-30T05:10:46.027Z,44.18
2019-05-30T05:15:49.667Z,43.92
2019-05-30T05:20:53.324Z,43.91
2019-05-30T05:26:01.205Z,44.24
2019-05-30T05:31:02.583Z,44.20
2019-05-30T05:36:06.325Z,44.10
2019-05-30T05:41:09.890Z,44.11
2019-05-30T05:46:13.360Z,43.95
2019-05-30T05:51:17.083Z,44.06
2019-05-30T05:56:20.883Z,44.13
2019-05-30T06:01:25.444Z,44.11
2019-05-30T06:06:31.505Z,44.17
2019-05-30T06:11:34.428Z,44.12
2019-05-30T06:16:38.240Z,44.14
2019-05-30T06:21:53.534Z,44.64
2019-05-30T06:26:47.311Z,44.22
2019-05-30T06:31:51.134Z,44.15
2019-05-30T06:36:54.766Z,44.18
2019-05-30T06:41:58.385Z,44.33
2019-05-30T06:47:02.202Z,44.09
2019-05-30T06:52:05.901Z,44.22
2019-05-30T06:57:09.541Z,44.12
2019-05-30T07:02:13.364Z,44.15
2019-05-30T07:07:17.331Z,44.15
2019-05-30T07:12:21.049Z,44.40
2019-05-30T07:17:25.241Z,44.33
2019-05-30T07:22:29.715Z,44.50
2019-05-30T07:27:34.150Z,45.16
2019-05-30T07:32:37.947Z,45.60
2019-05-30T07:37:44.510Z,45.56
2019-05-30T07:42:47.736Z,45.52
2019-05-30T07:47:51.456Z,45.76
2019-05-30T07:52:54.924Z,46.03
2019-05-30T07:57:58.573Z,46.01
2019-05-30T08:03:02.060Z,46.29
2019-05-30T08:08:06.016Z,46.81
2019-05-30T08:13:09.668Z,47.11
2019-05-30T08:18:13.413Z,47.40
2019-05-30T08:23:16.977Z,47.35
2019-05-30T08:28:20.740Z,47.21
2019-05-30T08:33:24.443Z,47.63
2019-05-30T08:38:28.998Z,47.60
2019-05-30T08:43:33.406Z,47.33
2019-05-30T08:48:38.192Z,47.41
2019-05-30T08:53:42.193Z,47.60
2019-05-30T08:58:46.415Z,47.51
2019-05-30T09:03:49.989Z,47.72
2019-05-30T09:08:53.672Z,47.56
2019-05-30T09:13:57.215Z,48.27
2019-05-30T09:19:00.853Z,48.42
2019-05-30T09:24:05.500Z,48.58
2019-05-30T09:29:09.265Z,48.40
2019-05-30T09:34:12.887Z,48.38
2019-05-30T09:39:16.384Z,48.84
2019-05-30T09:44:20.112Z,48.81
2019-05-30T09:49:23.673Z,48.80
2019-05-30T09:54:27.253Z,49.05
2019-05-30T09:59:30.989Z,48.42
2019-05-30T10:04:34.818Z,48.30
2019-05-30T10:09:38.427Z,48.15
2019-05-30T10:14:42.147Z,48.82
2019-05-30T10:19:47.056Z,49.11
2019-05-30T10:24:51.227Z,49.31
2019-05-30T10:29:54.906Z,49.32
2019-05-30T10:34:58.465Z,50.13
2019-05-30T10:40:02.269Z,50.29
2019-05-30T10:45:08.679Z,50.94
2019-05-30T10:50:14.130Z,51.06
2019-05-30T10:55:18.606Z,51.38
2019-05-30T11:00:24.246Z,51.53
2019-05-30T11:05:28.042Z,51.34
2019-05-30T11:10:37.294Z,51.34
2019-05-30T11:15:40.971Z,51.52
2019-05-30T11:20:44.750Z,51.67
2019-05-30T11:25:48.596Z,51.24
2019-05-30T11:30:52.781Z,51.02
2019-05-30T11:35:57.136Z,50.87
2019-05-30T11:41:00.962Z,50.94
2019-05-30T11:46:04.971Z,50.69
2019-05-30T11:51:08.748Z,50.98
2019-05-30T11:56:12.527Z,51.02
2019-05-30T12:01:16.775Z,50.83
2019-05-30T12:06:20.572Z,50.78
2019-05-30T12:11:24.213Z,50.58
2019-05-30T12:16:27.788Z,50.60
2019-05-30T12:21:31.690Z,50.26
2019-05-30T12:26:35.356Z,50.78
2019-05-30T12:31:39.074Z,50.88
2019-05-30T12:36:42.791Z,51.19
2019-05-30T12:41:46.423Z,51.15
2019-05-30T12:46:50.034Z,50.99
2019-05-30T12:51:54.099Z,50.98
2019-05-30T12:56:58.641Z,50.86
2019-05-30T13:02:03.086Z,51.15
2019-05-30T13:07:07.663Z,51.00
2019-05-30T13:12:11.404Z,50.70
2019-05-30T13:17:15.126Z,50.62
2019-05-30T13:22:18.944Z,50.46
2019-05-30T13:27:22.666Z,50.37
2019-05-30T13:32:26.334Z,50.55
2019-05-30T13:37:30.032Z,50.32
2019-05-30T13:42:33.655Z,50.25
2019-05-30T13:47:38.861Z,50.32
2019-05-30T13:52:42.705Z,50.23
2019-05-30T13:57:46.545Z,50.24
2019-05-30T14:02:50.510Z,50.47
2019-05-30T14:07:54.285Z,50.58
2019-05-30T14:12:57.765Z,50.42
2019-05-30T14:18:03.200Z,50.34
2019-05-30T14:23:07.370Z,50.00
2019-05-30T14:28:12.103Z,49.99
2019-05-30T14:33:16.191Z,49.89
2019-05-30T14:38:19.833Z,50.05
2019-05-30T14:43:23.541Z,50.01
2019-05-30T14:48:27.326Z,50.08
2019-05-30T14:53:31.047Z,50.17
2019-05-30T14:58:34.666Z,50.03
2019-05-30T15:03:38.219Z,50.09
2019-05-30T15:08:42.186Z,50.10
2019-05-30T15:13:45.836Z,49.89
2019-05-30T15:18:49.442Z,49.74
2019-05-30T15:23:53.187Z,49.80
2019-05-30T15:28:56.743Z,49.77
2019-05-30T15:34:00.422Z,49.63
2019-05-30T15:39:08.849Z,49.69
2019-05-30T15:44:13.626Z,49.47
2019-05-30T15:49:18.434Z,50.53
2019-05-30T15:54:22.125Z,50.73
2019-05-30T15:59:25.812Z,50.94
2019-05-30T16:04:29.584Z,51.01
2019-05-30T16:09:46.636Z,51.72
2019-05-30T16:14:41.235Z,52.41
2019-05-30T16:19:44.884Z,52.73
2019-05-30T16:24:48.562Z,52.70
2019-05-30T16:29:52.279Z,52.75
2019-05-30T16:34:57.476Z,52.79
2019-05-30T16:40:06.254Z,52.08
2019-05-30T16:45:09.119Z,51.72
2019-05-30T16:50:14.747Z,51.24
2019-05-30T16:55:21.374Z,51.47
2019-05-30T17:00:25.200Z,51.01
2019-05-30T17:05:28.813Z,50.18
2019-05-30T17:10:33.350Z,50.21
2019-05-30T17:15:37.234Z,50.04
2019-05-30T17:20:41.059Z,50.88
2019-05-30T17:25:44.785Z,50.70
2019-05-30T17:30:48.700Z,50.88
2019-05-30T17:35:52.336Z,50.88
2019-05-30T17:40:56.054Z,50.96
2019-05-30T17:45:59.699Z,50.95
2019-05-30T17:51:03.383Z,51.56
2019-05-30T17:56:07.113Z,51.32
2019-05-30T18:01:10.739Z,51.17
2019-05-30T18:06:14.473Z,51.38
2019-05-30T18:11:18.063Z,51.15
2019-05-30T18:16:21.635Z,51.61
2019-05-30T18:21:25.446Z,52.21
2019-05-30T18:26:29.745Z,52.75
2019-05-30T18:31:34.993Z,53.00
2019-05-30T18:36:38.661Z,53.41
2019-05-30T18:41:42.204Z,53.53
2019-05-30T18:46:45.850Z,53.42
2019-05-30T18:51:49.678Z,53.62
2019-05-30T18:56:53.299Z,53.13
2019-05-30T19:01:56.923Z,51.17
2019-05-30T19:07:00.746Z,52.07
2019-05-30T19:12:04.865Z,52.08
2019-05-30T19:17:08.452Z,52.25
2019-05-30T19:22:12.303Z,52.39
2019-05-30T19:27:15.855Z,52.25
2019-05-30T19:32:19.413Z,52.32
2019-05-30T19:37:22.992Z,52.33
2019-05-30T19:42:27.302Z,52.10
2019-05-30T19:47:32.355Z,51.48
2019-05-30T19:52:36.932Z,51.86
2019-05-30T19:57:40.804Z,51.50
2019-05-30T20:02:44.435Z,51.95
2019-05-30T20:07:48.156Z,51.64
2019-05-30T20:12:52.594Z,51.81
2019-05-30T20:17:56.252Z,51.92
2019-05-30T20:22:59.928Z,52.36
2019-05-30T20:28:03.742Z,52.22
2019-05-30T20:33:07.315Z,52.53
2019-05-30T20:38:11.090Z,52.75
2019-05-30T20:43:14.824Z,56.35
2019-05-30T20:48:18.541Z,55.78
2019-05-30T20:53:22.248Z,56.22
2019-05-30T20:58:25.971Z,55.73
2019-05-30T21:03:29.798Z,55.50
2019-05-30T21:08:34.816Z,55.44
2019-05-30T21:13:42.220Z,55.62
2019-05-30T21:18:46.482Z,55.56
2019-05-30T21:23:50.100Z,55.26
2019-05-30T21:28:53.692Z,55.20
2019-05-30T21:33:57.431Z,54.98
2019-05-30T21:39:01.067Z,54.84
2019-05-30T21:44:05.201Z,54.70
2019-05-30T21:49:08.806Z,54.54
2019-05-30T21:54:12.640Z,54.61
2019-05-30T21:59:16.205Z,54.34
2019-05-30T22:04:20.174Z,54.19
2019-05-30T22:09:23.725Z,53.96
2019-05-30T22:14:27.192Z,53.84
2019-05-30T22:19:31.244Z,53.83
2019-05-30T22:24:34.955Z,53.77
2019-05-30T22:29:40.448Z,53.71
2019-05-30T22:34:44.736Z,53.53
2019-05-30T22:39:48.915Z,53.57
2019-05-30T22:44:52.707Z,53.40
2019-05-30T22:49:57.065Z,53.32
2019-05-30T22:55:01.046Z,53.10
2019-05-30T23:00:07.555Z,53.24
2019-05-30T23:05:12.224Z,53.28
2019-05-30T23:10:16.229Z,53.19
2019-05-30T23:15:19.792Z,53.00
2019-05-30T23:20:23.666Z,52.95
2019-05-30T23:25:27.265Z,52.91
2019-05-30T23:30:30.905Z,52.83
2019-05-30T23:35:34.649Z,52.80
2019-05-30T23:40:38.212Z,52.75
2019-05-30T23:45:41.758Z,52.57
2019-05-30T23:50:45.788Z,52.45
2019-05-30T23:55:50.204Z,52.34
